createdAt,value
2022-09-13T00:01:30.974Z,37.00
2022-09-13T00:03:57.968Z,36.90
2022-09-13T00:06:25.272Z,37.00
2022-09-13T00:08:53.935Z,37.10
2022-09-13T00:11:26.239Z,37.10
2022-09-13T00:13:54.681Z,37.10
2022-09-13T00:16:25.173Z,36.70
2022-09-13T00:18:53.873Z,36.70
2022-09-13T00:21:22.812Z,36.90
2022-09-13T00:23:53.173Z,36.50
2022-09-13T00:26:24.101Z,36.00
2022-09-13T00:28:53.268Z,36.30
2022-09-13T00:31:26.572Z,36.40
2022-09-13T00:33:53.982Z,36.40
2022-09-13T00:36:21.064Z,36.20
2022-09-13T00:38:47.973Z,35.80
2022-09-13T00:41:17.433Z,35.90
2022-09-13T00:43:48.243Z,36.10
2022-09-13T00:46:24.676Z,36.00
2022-09-13T00:48:56.185Z,35.80
2022-09-13T00:51:23.345Z,34.90
2022-09-13T00:53:54.586Z,34.40
2022-09-13T00:56:42.731Z,34.30
2022-09-13T00:59:25.076Z,34.60
2022-09-13T01:01:55.325Z,34.50
2022-09-13T01:04:27.357Z,34.80
2022-09-13T01:06:59.445Z,34.40
2022-09-13T01:09:27.154Z,34.70
2022-09-13T01:12:14.789Z,34.60
2022-09-13T01:14:43.731Z,34.40
2022-09-13T01:17:10.662Z,34.40
2022-09-13T01:19:37.730Z,34.80
2022-09-13T01:22:29.296Z,34.60
2022-09-13T01:25:20.972Z,34.80
2022-09-13T01:27:54.199Z,35.40
2022-09-13T01:30:25.194Z,35.50
2022-09-13T01:32:54.950Z,35.70
2022-09-13T01:35:48.110Z,35.70
2022-09-13T01:38:45.353Z,35.30
2022-09-13T01:41:36.126Z,35.20
2022-09-13T01:44:15.326Z,35.20
2022-09-13T01:47:17.929Z,34.80
2022-09-13T01:50:06.168Z,34.90
2022-09-13T01:52:50.301Z,35.00
2022-09-13T01:55:23.513Z,35.00
2022-09-13T01:57:50.357Z,34.80
2022-09-13T02:00:18.741Z,35.00
2022-09-13T02:03:01.574Z,34.30
2022-09-13T02:05:35.332Z,34.40
2022-09-13T02:08:10.457Z,34.30
2022-09-13T02:11:10.836Z,34.30
2022-09-13T02:13:47.228Z,34.00
2022-09-13T02:16:21.298Z,34.20
2022-09-13T02:18:54.138Z,33.90
2022-09-13T02:21:31.356Z,34.30
2022-09-13T02:24:06.027Z,34.70
2022-09-13T02:26:36.971Z,34.40
2022-09-13T02:29:10.649Z,34.80
2022-09-13T02:31:57.168Z,34.80
2022-09-13T02:34:33.821Z,34.80
2022-09-13T02:37:03.126Z,35.00
2022-09-13T02:39:32.508Z,35.30
2022-09-13T02:42:04.802Z,35.40
2022-09-13T02:44:42.594Z,35.20
2022-09-13T02:47:24.870Z,35.30
2022-09-13T02:50:28.719Z,35.00
2022-09-13T02:53:23.129Z,34.70
2022-09-13T02:56:05.295Z,34.50
2022-09-13T02:58:51.274Z,34.60
2022-09-13T03:01:18.477Z,34.40
2022-09-13T03:03:45.483Z,34.20
2022-09-13T03:06:12.890Z,33.80
2022-09-13T03:08:40.144Z,34.10
2022-09-13T03:11:21.356Z,34.60
2022-09-13T03:14:07.140Z,34.70
2022-09-13T03:16:46.132Z,34.30
2022-09-13T03:19:37.424Z,34.70
2022-09-13T03:22:33.890Z,34.70
2022-09-13T03:25:12.746Z,34.80
2022-09-13T03:28:03.127Z,34.80
2022-09-13T03:30:34.351Z,34.70
2022-09-13T03:33:14.042Z,34.60
2022-09-13T03:36:14.453Z,34.70
2022-09-13T03:39:03.522Z,35.20
2022-09-13T03:41:39.835Z,35.30
2022-09-13T03:44:11.642Z,35.30
2022-09-13T03:46:48.898Z,35.20
2022-09-13T03:49:18.221Z,34.90
2022-09-13T03:51:47.956Z,34.40
2022-09-13T03:54:24.361Z,34.00
2022-09-13T03:57:15.111Z,34.20
2022-09-13T03:59:49.212Z,33.90
2022-09-13T04:02:17.530Z,34.10
2022-09-13T04:04:45.946Z,34.00
2022-09-13T04:07:16.051Z,34.20
2022-09-13T04:09:43.377Z,34.40
2022-09-13T04:12:10.804Z,34.90
2022-09-13T04:14:38.326Z,35.00
2022-09-13T04:17:05.548Z,35.10
2022-09-13T04:19:32.563Z,35.10
2022-09-13T04:21:59.993Z,35.40
2022-09-13T04:24:28.368Z,34.80
2022-09-13T04:26:56.425Z,34.70
2022-09-13T04:29:25.784Z,34.80
2022-09-13T04:31:54.187Z,35.20
2022-09-13T04:34:23.221Z,35.20
2022-09-13T04:36:51.483Z,35.00
2022-09-13T04:39:20.127Z,35.30
2022-09-13T04:41:48.389Z,34.70
2022-09-13T04:44:16.848Z,34.80
2022-09-13T04:46:47.679Z,35.10
2022-09-13T04:49:15.667Z,34.70
2022-09-13T04:51:42.659Z,34.30
2022-09-13T04:54:15.283Z,34.60
2022-09-13T04:56:44.011Z,34.80
2022-09-13T04:59:11.649Z,34.90
2022-09-13T05:01:38.930Z,35.10
2022-09-13T05:04:07.491Z,35.00
2022-09-13T05:06:35.260Z,35.30
2022-09-13T05:09:02.701Z,35.00
2022-09-13T05:11:30.045Z,34.80
2022-09-13T05:13:59.268Z,34.90
2022-09-13T05:16:28.700Z,34.70
2022-09-13T05:18:55.982Z,34.20
2022-09-13T05:21:24.198Z,34.20
2022-09-13T05:23:52.574Z,34.40
2022-09-13T05:26:20.102Z,34.60
2022-09-13T05:28:47.380Z,34.30
2022-09-13T05:31:22.042Z,33.60
2022-09-13T05:33:54.093Z,33.50
2022-09-13T05:36:21.017Z,34.20
2022-09-13T05:39:01.604Z,33.80
2022-09-13T05:41:37.226Z,33.30
2022-09-13T05:44:12.567Z,33.50
2022-09-13T05:46:40.886Z,33.70
2022-09-13T05:49:07.832Z,34.10
2022-09-13T05:51:34.868Z,34.10
2022-09-13T05:54:01.909Z,33.90
2022-09-13T05:56:32.210Z,33.90
2022-09-13T05:58:59.520Z,33.90
2022-09-13T06:01:28.400Z,33.80
2022-09-13T06:03:57.716Z,33.80
2022-09-13T06:06:25.797Z,34.10
2022-09-13T06:08:56.996Z,34.60
2022-09-13T06:11:24.565Z,34.60
2022-09-13T06:13:51.682Z,34.70
2022-09-13T06:16:18.882Z,34.70
2022-09-13T06:18:46.382Z,35.10
2022-09-13T06:21:20.313Z,35.00
2022-09-13T06:23:54.603Z,34.80
2022-09-13T06:26:24.288Z,34.10
2022-09-13T06:28:53.625Z,34.10
2022-09-13T06:31:22.865Z,34.10
2022-09-13T06:33:49.786Z,34.00
2022-09-13T06:36:19.235Z,34.20
2022-09-13T06:38:49.028Z,34.50
2022-09-13T06:41:18.893Z,34.90
2022-09-13T06:43:46.543Z,34.90
2022-09-13T06:46:19.454Z,34.80
2022-09-13T06:48:48.955Z,34.60
2022-09-13T06:51:18.911Z,34.50
2022-09-13T06:53:47.495Z,34.30
2022-09-13T06:56:15.852Z,34.30
2022-09-13T06:58:44.622Z,34.30
2022-09-13T07:01:18.398Z,34.10
2022-09-13T07:03:54.498Z,34.50
2022-09-13T07:06:29.422Z,35.00
2022-09-13T07:08:58.112Z,34.80
2022-09-13T07:11:28.994Z,34.50
2022-09-13T07:13:57.739Z,34.20
2022-09-13T07:16:27.518Z,34.40
2022-09-13T07:18:56.858Z,34.20
2022-09-13T07:21:24.744Z,34.20
2022-09-13T07:23:53.187Z,34.00
2022-09-13T07:26:21.106Z,34.10
2022-09-13T07:28:52.244Z,34.20
2022-09-13T07:31:23.444Z,34.50
2022-09-13T07:34:00.510Z,34.60
2022-09-13T07:36:29.266Z,34.90
2022-09-13T07:38:57.396Z,34.50
2022-09-13T07:41:26.027Z,34.60
2022-09-13T07:43:53.673Z,34.20
2022-09-13T07:46:26.420Z,34.90
2022-09-13T07:48:55.792Z,34.70
2022-09-13T07:51:31.141Z,34.10
2022-09-13T07:54:03.818Z,34.30
2022-09-13T07:56:35.755Z,34.50
2022-09-13T07:59:06.128Z,34.40
2022-09-13T08:01:40.066Z,35.00
2022-09-13T08:04:12.737Z,34.10
2022-09-13T08:06:40.845Z,34.10
2022-09-13T08:09:10.463Z,33.70
2022-09-13T08:11:43.208Z,33.90
2022-09-13T08:14:13.439Z,34.40
2022-09-13T08:16:41.143Z,34.60
2022-09-13T08:19:11.059Z,33.90
2022-09-13T08:21:40.487Z,34.30
2022-09-13T08:24:12.542Z,34.50
2022-09-13T08:26:39.638Z,33.50
2022-09-13T08:29:07.248Z,34.00
2022-09-13T08:31:35.258Z,34.50
2022-09-13T08:34:02.181Z,34.30
2022-09-13T08:36:30.001Z,34.00
2022-09-13T08:38:59.767Z,34.00
2022-09-13T08:41:35.565Z,33.70
2022-09-13T08:44:18.869Z,34.10
2022-09-13T08:46:47.056Z,34.30
2022-09-13T08:49:45.922Z,34.60
2022-09-13T08:52:40.981Z,35.00
2022-09-13T08:55:41.649Z,34.80
2022-09-13T08:58:33.431Z,34.70
2022-09-13T09:01:24.320Z,33.60
2022-09-13T09:04:05.719Z,33.90
2022-09-13T09:06:35.508Z,33.00
2022-09-13T09:09:05.383Z,32.70
2022-09-13T09:11:59.801Z,32.50
2022-09-13T09:14:31.266Z,32.50
2022-09-13T09:17:11.215Z,32.90
2022-09-13T09:20:03.646Z,33.80
2022-09-13T09:22:34.724Z,34.40
2022-09-13T09:25:02.055Z,34.30
2022-09-13T09:27:31.969Z,34.30
2022-09-13T09:29:59.310Z,34.10
2022-09-13T09:32:44.327Z,34.00
2022-09-13T09:35:33.448Z,33.20
2022-09-13T09:38:12.145Z,32.90
2022-09-13T09:40:39.163Z,33.30
2022-09-13T09:43:19.784Z,33.60
2022-09-13T09:45:48.082Z,33.40
2022-09-13T09:48:20.432Z,33.40
2022-09-13T09:50:58.625Z,33.30
2022-09-13T09:53:36.884Z,33.30
2022-09-13T09:56:21.001Z,33.20
2022-09-13T09:58:48.291Z,33.70
2022-09-13T10:01:40.185Z,33.20
2022-09-13T10:04:13.033Z,33.30
2022-09-13T10:06:42.103Z,32.80
2022-09-13T10:09:19.011Z,32.20
2022-09-13T10:11:58.406Z,32.10
2022-09-13T10:14:45.966Z,32.10
2022-09-13T10:17:24.210Z,32.30
2022-09-13T10:19:52.986Z,32.70
2022-09-13T10:22:20.685Z,32.30
2022-09-13T10:24:48.327Z,32.80
2022-09-13T10:27:27.174Z,33.30
2022-09-13T10:29:59.864Z,33.50
2022-09-13T10:32:28.994Z,33.50
2022-09-13T10:34:57.489Z,32.60
2022-09-13T10:37:34.725Z,33.30
2022-09-13T10:40:27.155Z,34.00
2022-09-13T10:42:57.561Z,33.30
2022-09-13T10:45:28.117Z,32.50
2022-09-13T10:48:15.694Z,32.50
2022-09-13T10:51:05.139Z,32.30
2022-09-13T10:53:34.154Z,32.50
2022-09-13T10:56:02.837Z,32.50
2022-09-13T10:58:30.551Z,32.90
2022-09-13T11:01:12.558Z,32.90
2022-09-13T11:04:01.154Z,32.00
2022-09-13T11:07:12.845Z,32.70
2022-09-13T11:09:44.575Z,33.30
2022-09-13T11:12:39.507Z,33.20
2022-09-13T11:15:27.966Z,33.30
2022-09-13T11:18:28.629Z,33.20
2022-09-13T11:21:18.390Z,33.30
2022-09-13T11:24:09.696Z,33.50
2022-09-13T11:26:56.801Z,33.70
2022-09-13T11:29:45.547Z,34.10
2022-09-13T11:32:18.692Z,33.60
2022-09-13T11:35:07.460Z,34.40
2022-09-13T11:37:43.104Z,34.70
2022-09-13T11:40:40.839Z,34.90
2022-09-13T11:43:21.091Z,35.00
2022-09-13T11:46:35.634Z,35.20
2022-09-13T11:49:26.888Z,35.50
2022-09-13T11:52:08.765Z,35.50
2022-09-13T11:55:04.580Z,36.20
2022-09-13T11:57:39.067Z,35.90
2022-09-13T12:00:15.875Z,36.40
2022-09-13T12:02:49.475Z,35.80
2022-09-13T12:05:24.443Z,36.40
2022-09-13T12:08:00.316Z,36.80
2022-09-13T12:10:27.233Z,36.10
2022-09-13T12:12:56.365Z,35.80
2022-09-13T12:15:40.241Z,35.50
2022-09-13T12:18:29.067Z,35.50
2022-09-13T12:21:11.639Z,36.20
2022-09-13T12:23:46.741Z,36.40
2022-09-13T12:26:24.129Z,37.10
2022-09-13T12:29:05.643Z,37.80
2022-09-13T12:31:33.185Z,38.40
2022-09-13T12:34:06.030Z,39.00
2022-09-13T12:37:00.407Z,39.80
2022-09-13T12:39:45.985Z,40.70
2022-09-13T12:42:57.944Z,40.70
2022-09-13T12:45:39.604Z,40.80
2022-09-13T12:48:21.375Z,40.90
2022-09-13T12:50:51.166Z,40.70
2022-09-13T12:53:39.540Z,40.80
2022-09-13T12:56:43.504Z,40.70
2022-09-13T12:59:29.296Z,40.40
2022-09-13T13:01:57.448Z,40.80
2022-09-13T13:04:32.432Z,40.60
2022-09-13T13:07:01.033Z,40.40
2022-09-13T13:09:42.675Z,41.00
2022-09-13T13:12:30.918Z,40.80
2022-09-13T13:14:59.399Z,40.60
2022-09-13T13:17:46.204Z,39.50
2022-09-13T13:20:47.233Z,39.90
2022-09-13T13:23:16.659Z,40.30
2022-09-13T13:26:11.854Z,39.60
2022-09-13T13:29:04.893Z,38.80
2022-09-13T13:31:31.890Z,39.20
2022-09-13T13:34:11.178Z,38.40
2022-09-13T13:36:41.123Z,37.50
2022-09-13T13:39:23.113Z,38.10
2022-09-13T13:41:55.045Z,38.60
2022-09-13T13:44:22.047Z,38.50
2022-09-13T13:46:51.334Z,38.00
2022-09-13T13:49:30.333Z,37.70
2022-09-13T13:52:10.263Z,38.10
2022-09-13T13:54:45.845Z,38.60
2022-09-13T13:57:41.228Z,39.00
2022-09-13T14:00:23.549Z,38.60
2022-09-13T14:02:50.696Z,37.80
2022-09-13T14:05:22.773Z,38.10
2022-09-13T14:08:14.207Z,38.50
2022-09-13T14:11:14.522Z,38.90
2022-09-13T14:13:55.243Z,39.40
2022-09-13T14:16:31.137Z,40.00
2022-09-13T14:19:12.239Z,40.00
2022-09-13T14:21:39.246Z,40.20
2022-09-13T14:24:24.727Z,40.00
2022-09-13T14:26:59.938Z,40.60
2022-09-13T14:29:27.603Z,41.20
2022-09-13T14:32:03.311Z,41.20
2022-09-13T14:34:32.981Z,41.40
2022-09-13T14:37:03.775Z,41.80
2022-09-13T14:39:30.813Z,42.30
2022-09-13T14:42:15.828Z,42.70
2022-09-13T14:44:46.629Z,43.20
2022-09-13T14:47:16.327Z,43.20
2022-09-13T14:49:49.265Z,43.10
2022-09-13T14:52:34.484Z,43.00
2022-09-13T14:55:06.050Z,42.90
2022-09-13T14:57:38.833Z,42.40
2022-09-13T15:00:21.597Z,41.60
2022-09-13T15:03:01.469Z,41.50
2022-09-13T15:05:33.002Z,41.50
2022-09-13T15:08:01.035Z,41.50
2022-09-13T15:10:33.088Z,41.10
2022-09-13T15:13:05.860Z,41.50
2022-09-13T15:15:39.429Z,41.70
2022-09-13T15:18:25.562Z,42.00
2022-09-13T15:21:04.734Z,41.20
2022-09-13T15:23:38.978Z,40.70
2022-09-13T15:26:20.682Z,40.80
2022-09-13T15:28:54.699Z,40.70
2022-09-13T15:31:28.349Z,40.50
2022-09-13T15:34:17.109Z,40.70
2022-09-13T15:36:45.735Z,40.60
2022-09-13T15:39:21.582Z,40.50
2022-09-13T15:42:08.846Z,40.40
2022-09-13T15:44:38.509Z,40.10
2022-09-13T15:47:16.236Z,40.00
2022-09-13T15:49:51.963Z,40.30
2022-09-13T15:52:20.468Z,40.00
2022-09-13T15:54:51.449Z,39.70
2022-09-13T15:57:24.171Z,39.30
2022-09-13T15:59:51.981Z,39.40
2022-09-13T16:02:22.834Z,38.90
2022-09-13T16:04:50.396Z,38.90
2022-09-13T16:07:18.632Z,39.20
2022-09-13T16:09:46.283Z,39.60
2022-09-13T16:12:13.297Z,39.60
2022-09-13T16:14:40.701Z,39.40
2022-09-13T16:17:17.670Z,39.70
2022-09-13T16:19:44.605Z,39.90
2022-09-13T16:22:12.874Z,40.00
2022-09-13T16:24:40.279Z,40.10
2022-09-13T16:27:07.335Z,40.00
2022-09-13T16:29:34.296Z,40.10
2022-09-13T16:32:02.369Z,39.90
2022-09-13T16:34:29.248Z,39.90
2022-09-13T16:36:56.321Z,39.80
2022-09-13T16:39:23.307Z,39.10
2022-09-13T16:41:50.366Z,38.90
2022-09-13T16:44:17.976Z,39.00
2022-09-13T16:46:45.457Z,39.30
2022-09-13T16:49:12.875Z,39.50
2022-09-13T16:51:39.864Z,39.80
2022-09-13T16:54:06.842Z,39.70
2022-09-13T16:56:34.131Z,39.80
2022-09-13T16:59:01.172Z,39.50
2022-09-13T17:01:29.769Z,39.60
2022-09-13T17:03:57.687Z,39.50
2022-09-13T17:06:27.214Z,39.50
2022-09-13T17:09:03.193Z,39.40
2022-09-13T17:11:32.866Z,39.30
2022-09-13T17:14:01.078Z,39.30
2022-09-13T17:16:29.669Z,39.40
2022-09-13T17:18:59.290Z,39.50
2022-09-13T17:21:27.925Z,39.40
2022-09-13T17:23:55.490Z,39.30
2022-09-13T17:26:22.947Z,39.30
2022-09-13T17:28:50.268Z,39.30
2022-09-13T17:31:17.323Z,39.10
2022-09-13T17:33:44.565Z,39.10
2022-09-13T17:36:13.834Z,39.00
2022-09-13T17:38:41.947Z,39.20
2022-09-13T17:41:17.744Z,39.50
2022-09-13T17:43:46.582Z,39.50
2022-09-13T17:46:15.491Z,39.60
2022-09-13T17:48:43.281Z,39.50
2022-09-13T17:51:22.633Z,39.50
2022-09-13T17:53:50.913Z,39.30
2022-09-13T17:56:20.589Z,39.20
2022-09-13T17:58:48.196Z,39.00
2022-09-13T18:01:16.031Z,39.00
2022-09-13T18:03:43.409Z,39.00
2022-09-13T18:06:11.879Z,39.00
2022-09-13T18:08:39.674Z,39.20
2022-09-13T18:11:13.905Z,39.30
2022-09-13T18:13:43.047Z,39.10
2022-09-13T18:16:20.966Z,39.10
2022-09-13T18:18:50.563Z,38.90
2022-09-13T18:21:19.371Z,38.70
2022-09-13T18:23:51.868Z,38.70
2022-09-13T18:26:24.002Z,38.50
2022-09-13T18:28:56.376Z,38.40
2022-09-13T18:31:24.308Z,38.00
2022-09-13T18:33:57.152Z,38.10
2022-09-13T18:36:25.426Z,38.00
2022-09-13T18:38:53.406Z,37.70
2022-09-13T18:41:23.143Z,37.20
2022-09-13T18:43:55.499Z,36.90
2022-09-13T18:46:25.613Z,36.80
2022-09-13T18:48:57.632Z,36.30
2022-09-13T18:51:34.252Z,35.70
2022-09-13T18:54:02.221Z,34.40
2022-09-13T18:56:29.579Z,33.90
2022-09-13T18:59:00.062Z,34.00
2022-09-13T19:01:35.024Z,34.70
2022-09-13T19:04:23.309Z,34.80
2022-09-13T19:06:55.212Z,35.50
2022-09-13T19:09:23.005Z,35.80
2022-09-13T19:11:52.500Z,36.00
2022-09-13T19:14:23.247Z,36.60
2022-09-13T19:16:51.795Z,36.40
2022-09-13T19:19:19.012Z,37.20
2022-09-13T19:21:46.386Z,37.30
2022-09-13T19:24:18.693Z,37.40
2022-09-13T19:26:47.550Z,37.50
2022-09-13T19:29:16.918Z,37.80
2022-09-13T19:31:48.429Z,38.00
2022-09-13T19:34:17.666Z,38.00
2022-09-13T19:36:45.276Z,38.00
2022-09-13T19:39:12.515Z,38.00
2022-09-13T19:41:40.533Z,38.00
2022-09-13T19:44:09.000Z,38.20
2022-09-13T19:46:38.645Z,38.50
2022-09-13T19:49:07.031Z,38.70
2022-09-13T19:51:37.471Z,38.90
2022-09-13T19:54:05.823Z,39.00
2022-09-13T19:56:38.815Z,38.50
2022-09-13T19:59:16.990Z,38.50
2022-09-13T20:01:46.155Z,38.70
2022-09-13T20:04:15.682Z,38.20
2022-09-13T20:06:45.034Z,37.90
2022-09-13T20:09:14.096Z,37.60
2022-09-13T20:11:45.079Z,37.40
2022-09-13T20:14:14.156Z,37.70
2022-09-13T20:16:47.622Z,37.70
2022-09-13T20:22:08.947Z,37.20
2022-09-13T20:24:36.140Z,36.90
2022-09-13T20:27:03.184Z,37.00
2022-09-13T20:29:34.607Z,37.20
2022-09-13T20:34:45.983Z,36.40
2022-09-13T20:37:12.934Z,36.20
2022-09-13T20:39:40.247Z,35.90
2022-09-13T20:42:07.330Z,35.70
2022-09-13T20:44:37.376Z,35.60
2022-09-13T20:47:04.734Z,36.10
2022-09-13T20:49:31.665Z,36.00
2022-09-13T20:51:59.518Z,36.30
2022-09-13T20:54:26.777Z,36.30
2022-09-13T20:56:53.713Z,36.20
2022-09-13T20:59:21.681Z,36.10
2022-09-13T21:01:48.746Z,36.10
2022-09-13T21:04:16.829Z,35.80
2022-09-13T21:07:02.438Z,35.80
2022-09-13T21:09:30.167Z,35.80
2022-09-13T21:11:57.528Z,35.60
2022-09-13T21:14:24.524Z,35.80
2022-09-13T21:16:51.444Z,35.80
2022-09-13T21:19:18.890Z,35.60
2022-09-13T21:21:45.949Z,35.20
2022-09-13T21:24:14.151Z,34.40
2022-09-13T21:26:44.509Z,34.40
2022-09-13T21:29:12.122Z,34.00
2022-09-13T21:31:45.511Z,34.00
2022-09-13T21:34:17.323Z,34.20
2022-09-13T21:39:36.964Z,34.40
2022-09-13T21:42:04.026Z,34.30
2022-09-13T21:44:31.303Z,34.20
2022-09-13T21:46:58.310Z,34.30
2022-09-13T21:49:25.264Z,34.30
2022-09-13T21:51:54.222Z,34.10
2022-09-13T21:54:21.276Z,34.30
2022-09-13T21:56:53.996Z,34.40
2022-09-13T21:59:22.730Z,34.40
2022-09-13T22:01:51.929Z,34.40
2022-09-13T22:04:22.356Z,34.40
2022-09-13T22:06:54.360Z,34.40
2022-09-13T22:09:24.748Z,34.40
2022-09-13T22:11:51.664Z,34.60
2022-09-13T22:14:22.040Z,35.00
2022-09-13T22:16:50.215Z,34.70
2022-09-13T22:19:20.517Z,35.30
2022-09-13T22:21:50.572Z,34.80
2022-09-13T22:24:20.791Z,34.60
2022-09-13T22:26:49.881Z,34.70
2022-09-13T22:29:17.298Z,35.20
2022-09-13T22:31:47.270Z,34.30
2022-09-13T22:34:17.555Z,34.00
2022-09-13T22:36:45.075Z,34.10
2022-09-13T22:39:14.050Z,34.30
2022-09-13T22:41:42.029Z,34.10
2022-09-13T22:44:09.025Z,34.20
2022-09-13T22:46:38.858Z,34.20
2022-09-13T22:49:06.115Z,33.70
2022-09-13T22:51:33.646Z,33.90
2022-09-13T22:54:04.994Z,33.90
2022-09-13T22:56:35.034Z,33.60
2022-09-13T22:59:12.541Z,33.60
2022-09-13T23:01:39.567Z,34.20
2022-09-13T23:04:07.217Z,34.80
2022-09-13T23:06:34.833Z,34.70
2022-09-13T23:09:04.557Z,34.40
2022-09-13T23:11:37.238Z,34.00
2022-09-13T23:14:12.260Z,33.60
2022-09-13T23:16:40.588Z,33.20
2022-09-13T23:19:07.970Z,34.20
2022-09-13T23:21:37.068Z,34.30
2022-09-13T23:24:06.331Z,33.80
2022-09-13T23:26:34.817Z,34.00
2022-09-13T23:29:03.529Z,33.90
2022-09-13T23:31:36.619Z,34.20
2022-09-13T23:34:05.490Z,34.20
2022-09-13T23:36:43.420Z,33.80
2022-09-13T23:39:19.936Z,33.10
2022-09-13T23:41:48.911Z,33.40
2022-09-13T23:44:16.707Z,33.50
2022-09-13T23:46:44.093Z,33.90
2022-09-13T23:49:11.035Z,33.90
2022-09-13T23:51:38.289Z,34.20
2022-09-13T23:54:06.265Z,34.90
2022-09-13T23:56:34.200Z,34.60
2022-09-13T23:59:02.574Z,34.30
